Brunswick Golden Isles Airport
KBQK : now visible

Airfield :











YOU CAN JOIN US ON...

 
LOGIN :

Register | Disclaimer

   EN    FR    IT 

 









Legend :    VFR   Marginal VFR   IFR   Intensive IFR   Very Intensive IFR
Visi :
Ceiling :
>= 8 km
>= 3000ft
5 to 8 km
1000 to 3000 ft
1500m to 5 km
500 to 1000 ft
800 to 1500m
200 to 500 ft
< 800m
< 200 ft
Symbols :   Thunderstorms  Fog  Heavy snow  Heavy precipitations  Wind > 20 kt






- Airport Elevation : 26 ft
- IATA code : BQK


KBQK - Brunswick Golden Isles

CURRENT METAR :
  • 160755Z AUTO 28006KT 10SM BKN005 17/16 A2986 RMK AO2 T01650159

EXPIRED METARs :
  • 160735Z AUTO 28005KT 10SM SCT005 16/16 A2985 RMK AO2 T01640157
  • 160715Z AUTO 28006KT 10SM CLR 17/16 A2986 RMK AO2 T01670158
  • 160655Z AUTO 28005KT 10SM CLR 17/16 A2986 RMK AO2 T01700160
  • 160635Z AUTO 26005KT 10SM CLR 17/16 A2986 RMK AO2 T01710161
  • 160615Z AUTO 27006KT 10SM CLR 17/16 A2987 RMK AO2 T01700161
  • 160555Z AUTO 25006KT 10SM CLR 17/16 A2986 RMK AO2 T01690159 10215 20169
  • 160535Z AUTO 27005KT 10SM CLR 17/16 A2987 RMK AO2 T01730160
  • 160515Z AUTO 27006KT 10SM CLR 18/16 A2987 RMK AO2 T01770162

TAF N/A
KZJX FIR / North America



MET'MAP, your aeronautical weather chart ! - Copyright ORBIFLY December 2007 - Disclaimer

ORBIFLY MET'MAP TEAM :

Programming & Development : Alexandra Zaïnal
Concept & original design : Baudouin d'Aumeries
Assistance for programming : Marc-Olivier Méhu
Technical & hardware support : Manuel Goepfert

Contact : metmap@orbifly.com




SOURCES & CREDITS :

   NOAA       Earth
Advisory